createdAt,value
2017-01-12T00:00:16.172Z,0
2017-01-12T00:01:25.247Z,0
2017-01-12T00:02:34.707Z,0
2017-01-12T00:03:44.173Z,0
2017-01-12T00:04:53.293Z,0
2017-01-12T00:06:02.388Z,0
2017-01-12T00:07:12.239Z,0
2017-01-12T00:08:21.696Z,0
2017-01-12T00:09:30.803Z,0
2017-01-12T00:10:40.260Z,0
2017-01-12T00:11:49.331Z,0
2017-01-12T00:12:58.411Z,0
2017-01-12T00:14:07.482Z,0
2017-01-12T00:15:16.932Z,0
2017-01-12T00:16:26.400Z,0
2017-01-12T00:17:35.487Z,0
2017-01-12T00:18:44.185Z,0
2017-01-12T00:19:52.891Z,0
2017-01-12T00:21:01.967Z,0
2017-01-12T00:22:10.649Z,0
2017-01-12T00:23:19.736Z,0
2017-01-12T00:24:29.195Z,0
2017-01-12T00:25:37.948Z,0
2017-01-12T00:26:46.634Z,0
2017-01-12T00:27:56.494Z,0
2017-01-12T00:29:05.942Z,0
2017-01-12T00:30:15.025Z,0
2017-01-12T00:31:24.103Z,0
2017-01-12T00:32:34.346Z,0
2017-01-12T00:33:43.798Z,0
2017-01-12T00:34:52.469Z,0
2017-01-12T00:36:01.547Z,0
2017-01-12T00:37:11.024Z,0
2017-01-12T00:38:20.111Z,0
2017-01-12T00:39:28.793Z,0
2017-01-12T00:40:37.471Z,0
2017-01-12T00:41:46.936Z,0
2017-01-12T00:42:56.057Z,0
2017-01-12T00:44:05.146Z,0
2017-01-12T00:45:14.705Z,0
2017-01-12T00:46:24.160Z,0
2017-01-12T00:47:33.225Z,0
2017-01-12T00:48:43.071Z,0
2017-01-12T00:49:52.134Z,0
2017-01-12T00:51:01.203Z,0
2017-01-12T00:52:10.275Z,0
2017-01-12T00:53:19.725Z,0
2017-01-12T00:54:28.416Z,0
2017-01-12T00:55:37.483Z,0
2017-01-12T00:56:46.551Z,0
2017-01-12T00:57:55.235Z,0
2017-01-12T00:59:03.947Z,0
2017-01-12T01:00:12.625Z,0
2017-01-12T01:01:21.694Z,0
2017-01-12T01:02:30.768Z,0
2017-01-12T01:03:40.223Z,0
2017-01-12T01:04:49.291Z,0
2017-01-12T01:05:58.360Z,0
2017-01-12T01:07:08.204Z,0
2017-01-12T01:08:17.294Z,0
2017-01-12T01:09:26.359Z,0
2017-01-12T01:10:35.426Z,0
2017-01-12T01:11:45.270Z,0
2017-01-12T01:12:54.348Z,0
2017-01-12T01:14:03.025Z,0
2017-01-12T01:15:12.089Z,0
2017-01-12T01:16:21.599Z,0
2017-01-12T01:17:31.060Z,0
2017-01-12T01:18:40.508Z,0
2017-01-12T01:19:49.573Z,0
2017-01-12T01:20:59.027Z,0
2017-01-12T01:22:08.481Z,0
2017-01-12T01:23:18.331Z,0
2017-01-12T01:24:27.789Z,0
2017-01-12T01:25:37.242Z,0
2017-01-12T01:26:47.478Z,0
2017-01-12T01:27:56.931Z,0
2017-01-12T01:29:05.603Z,0
2017-01-12T01:30:14.335Z,0
2017-01-12T01:31:23.803Z,0
2017-01-12T01:32:33.253Z,0
2017-01-12T01:33:42.741Z,0
2017-01-12T01:34:52.210Z,0
2017-01-12T01:36:01.283Z,0
2017-01-12T01:37:10.356Z,0
2017-01-12T01:38:19.813Z,0
2017-01-12T01:39:28.905Z,0
2017-01-12T01:40:37.977Z,0
2017-01-12T01:41:47.058Z,0
2017-01-12T01:42:55.763Z,0
2017-01-12T01:44:04.830Z,0
2017-01-12T01:45:14.324Z,0
2017-01-12T01:46:23.779Z,0
2017-01-12T01:47:32.843Z,0
2017-01-12T01:48:41.946Z,0
2017-01-12T01:49:51.012Z,0
2017-01-12T01:51:01.254Z,0
2017-01-12T01:52:10.312Z,0
2017-01-12T01:53:19.388Z,0
2017-01-12T01:54:28.863Z,0
2017-01-12T01:55:37.967Z,0
2017-01-12T01:56:47.035Z,0
2017-01-12T01:57:55.709Z,0
2017-01-12T01:59:04.385Z,0
2017-01-12T02:00:13.462Z,0
2017-01-12T02:01:23.302Z,0
2017-01-12T02:02:32.751Z,0
2017-01-12T02:03:41.823Z,0
2017-01-12T02:04:50.494Z,0
2017-01-12T02:05:59.600Z,0
2017-01-12T02:07:08.674Z,0
2017-01-12T02:08:18.531Z,0
2017-01-12T02:09:27.605Z,0
2017-01-12T02:10:36.281Z,0
2017-01-12T02:11:45.371Z,0
2017-01-12T02:12:54.449Z,0
2017-01-12T02:14:03.913Z,0
2017-01-12T02:15:12.974Z,0
2017-01-12T02:16:22.432Z,0
2017-01-12T02:17:31.506Z,0
2017-01-12T02:18:40.960Z,0
2017-01-12T02:19:49.624Z,0
2017-01-12T02:20:59.123Z,0
2017-01-12T02:22:08.589Z,0
2017-01-12T02:23:17.656Z,0
2017-01-12T02:24:27.504Z,0
2017-01-12T02:25:36.189Z,0
2017-01-12T02:26:44.870Z,0
2017-01-12T02:27:53.932Z,0
2017-01-12T02:29:03.389Z,0
2017-01-12T02:30:13.265Z,0
2017-01-12T02:31:22.721Z,0
2017-01-12T02:32:31.794Z,0
2017-01-12T02:33:40.468Z,0
2017-01-12T02:34:49.876Z,0
2017-01-12T02:35:59.091Z,0
2017-01-12T02:37:08.163Z,0
2017-01-12T02:38:18.010Z,0
2017-01-12T02:39:27.098Z,0
2017-01-12T02:40:36.560Z,0
2017-01-12T02:41:45.237Z,0
2017-01-12T02:42:53.939Z,0
2017-01-12T02:44:03.003Z,0
2017-01-12T02:45:12.102Z,0
2017-01-12T02:46:21.547Z,0
2017-01-12T02:47:30.994Z,0
2017-01-12T02:48:40.062Z,0
2017-01-12T02:49:49.163Z,0
2017-01-12T02:50:58.230Z,0
2017-01-12T02:52:07.680Z,0
2017-01-12T02:53:17.135Z,0
2017-01-12T02:54:26.259Z,0
2017-01-12T02:55:35.718Z,0
2017-01-12T02:56:44.408Z,0
2017-01-12T02:57:53.486Z,0
2017-01-12T02:59:02.180Z,0
2017-01-12T03:00:11.248Z,0
2017-01-12T03:01:19.944Z,0
2017-01-12T03:02:29.026Z,0
2017-01-12T03:03:38.478Z,0
2017-01-12T03:04:47.556Z,0
2017-01-12T03:05:57.010Z,0
2017-01-12T03:07:06.465Z,0
2017-01-12T03:08:16.701Z,0
2017-01-12T03:09:26.160Z,0
2017-01-12T03:10:35.220Z,0
2017-01-12T03:11:43.900Z,0
2017-01-12T03:12:52.566Z,0
2017-01-12T03:14:02.021Z,0
2017-01-12T03:15:10.701Z,0
2017-01-12T03:16:19.393Z,0
2017-01-12T03:17:28.848Z,0
2017-01-12T03:18:37.909Z,0
2017-01-12T03:19:47.371Z,0
2017-01-12T03:20:56.448Z,0
2017-01-12T03:22:05.513Z,0
2017-01-12T03:23:14.609Z,0
2017-01-12T03:24:23.300Z,0
2017-01-12T03:25:31.970Z,0
2017-01-12T03:26:40.653Z,0
2017-01-12T03:27:50.888Z,0
2017-01-12T03:29:00.333Z,0
2017-01-12T03:30:09.393Z,0
2017-01-12T03:31:18.081Z,0
2017-01-12T03:32:27.144Z,0
2017-01-12T03:33:35.838Z,0
2017-01-12T03:34:44.519Z,0
2017-01-12T03:35:53.213Z,0
2017-01-12T03:37:02.662Z,0
2017-01-12T03:38:11.723Z,0
2017-01-12T03:39:21.190Z,0
2017-01-12T03:40:30.298Z,0
2017-01-12T03:41:39.747Z,0
2017-01-12T03:42:48.817Z,0
2017-01-12T03:43:57.898Z,0
2017-01-12T03:45:06.579Z,0
2017-01-12T03:46:16.037Z,0
2017-01-12T03:47:24.741Z,0
2017-01-12T03:48:33.430Z,0
2017-01-12T03:49:42.508Z,0
2017-01-12T03:50:51.997Z,0
2017-01-12T03:52:01.079Z,0
2017-01-12T03:53:10.552Z,0
2017-01-12T03:54:19.231Z,0
2017-01-12T03:55:27.925Z,0
2017-01-12T03:56:36.611Z,0
2017-01-12T03:57:45.679Z,0
2017-01-12T03:58:54.777Z,0
2017-01-12T04:00:03.899Z,0
2017-01-12T04:01:12.976Z,0
2017-01-12T04:02:22.038Z,0
2017-01-12T04:03:31.515Z,0
2017-01-12T04:04:40.235Z,0
2017-01-12T04:05:49.708Z,0
2017-01-12T04:06:59.573Z,0
2017-01-12T04:08:08.646Z,0
2017-01-12T04:09:18.115Z,0
2017-01-12T04:10:27.186Z,0
2017-01-12T04:11:35.866Z,0
2017-01-12T04:12:45.720Z,0
2017-01-12T04:13:54.806Z,0
2017-01-12T04:15:03.876Z,0
2017-01-12T04:16:12.988Z,0
2017-01-12T04:17:22.446Z,0
2017-01-12T04:18:31.505Z,0
2017-01-12T04:19:40.226Z,0
2017-01-12T04:20:48.901Z,0
2017-01-12T04:21:58.354Z,0
2017-01-12T04:23:08.207Z,0
2017-01-12T04:24:16.898Z,0
2017-01-12T04:25:25.590Z,0
2017-01-12T04:26:34.656Z,0
2017-01-12T04:27:43.335Z,0
2017-01-12T04:28:52.429Z,0
2017-01-12T04:30:01.892Z,0
2017-01-12T04:31:10.570Z,0
2017-01-12T04:32:19.640Z,0
2017-01-12T04:33:29.115Z,0
2017-01-12T04:34:38.172Z,0
2017-01-12T04:35:47.620Z,0
2017-01-12T04:36:57.098Z,0
2017-01-12T04:38:06.171Z,0
2017-01-12T04:39:16.083Z,0
2017-01-12T04:40:24.751Z,0
2017-01-12T04:41:34.208Z,0
2017-01-12T04:42:42.928Z,0
2017-01-12T04:43:51.600Z,0
2017-01-12T04:45:00.688Z,0
2017-01-12T04:46:09.767Z,0
2017-01-12T04:47:19.220Z,0
2017-01-12T04:48:28.277Z,0
2017-01-12T04:49:37.063Z,0
2017-01-12T04:50:45.782Z,0
2017-01-12T04:51:55.280Z,0
2017-01-12T04:53:03.963Z,0
2017-01-12T04:54:13.040Z,0
2017-01-12T04:55:22.196Z,0
2017-01-12T04:56:31.267Z,0
2017-01-12T04:57:39.963Z,0
2017-01-12T04:58:48.651Z,0
2017-01-12T04:59:57.723Z,0
2017-01-12T05:01:06.397Z,0
2017-01-12T05:02:15.078Z,0
2017-01-12T05:03:24.553Z,0
2017-01-12T05:04:33.293Z,0
2017-01-12T05:05:43.168Z,0
2017-01-12T05:06:52.233Z,0
2017-01-12T05:08:00.908Z,0
2017-01-12T05:09:10.751Z,0
2017-01-12T05:10:20.267Z,0
2017-01-12T05:11:29.345Z,0
2017-01-12T05:12:38.837Z,0
2017-01-12T05:13:47.525Z,0
2017-01-12T05:14:56.613Z,0
2017-01-12T05:16:05.283Z,0
2017-01-12T05:17:14.349Z,0
2017-01-12T05:18:23.432Z,0
2017-01-12T05:19:32.499Z,0
2017-01-12T05:20:41.573Z,0
2017-01-12T05:21:51.428Z,0
2017-01-12T05:23:00.486Z,0
2017-01-12T05:24:09.963Z,0
2017-01-12T05:25:18.648Z,0
2017-01-12T05:26:28.123Z,0
2017-01-12T05:27:36.808Z,0
2017-01-12T05:28:45.497Z,0
2017-01-12T05:29:54.586Z,0
2017-01-12T05:31:04.048Z,0
2017-01-12T05:32:13.109Z,0
2017-01-12T05:33:22.562Z,0
2017-01-12T05:34:31.630Z,0
2017-01-12T05:35:41.083Z,0
2017-01-12T05:36:50.542Z,0
2017-01-12T05:37:59.608Z,0
2017-01-12T05:39:08.675Z,0
2017-01-12T05:40:17.747Z,0
2017-01-12T05:41:26.840Z,0
2017-01-12T05:42:35.932Z,0
2017-01-12T05:43:45.396Z,0
2017-01-12T05:44:54.066Z,0
2017-01-12T05:46:03.140Z,0
2017-01-12T05:47:12.617Z,0
2017-01-12T05:48:21.688Z,0
2017-01-12T05:49:30.754Z,0
2017-01-12T05:50:40.207Z,0
2017-01-12T05:51:49.274Z,0
2017-01-12T05:52:58.337Z,0
2017-01-12T05:54:07.413Z,0
2017-01-12T05:55:16.484Z,0
2017-01-12T05:56:25.555Z,0
2017-01-12T05:57:34.615Z,0
2017-01-12T05:58:43.318Z,0
2017-01-12T05:59:52.016Z,0
2017-01-12T06:01:01.484Z,0
2017-01-12T06:02:10.741Z,0
2017-01-12T06:03:19.820Z,0
2017-01-12T06:04:28.499Z,0
2017-01-12T06:05:37.172Z,0
2017-01-12T06:06:46.239Z,0
2017-01-12T06:07:56.468Z,0
2017-01-12T06:09:05.527Z,0
2017-01-12T06:10:14.219Z,0
2017-01-12T06:11:22.897Z,0
2017-01-12T06:12:31.589Z,0
2017-01-12T06:13:41.039Z,0
2017-01-12T06:14:50.103Z,0
2017-01-12T06:15:59.563Z,0
2017-01-12T06:17:09.434Z,0
2017-01-12T06:18:18.128Z,0
2017-01-12T06:19:27.212Z,4
2017-01-12T06:20:36.300Z,4
2017-01-12T06:21:45.756Z,4
2017-01-12T06:22:54.853Z,4
2017-01-12T06:24:03.928Z,8
2017-01-12T06:25:12.600Z,8
2017-01-12T06:26:22.066Z,8
2017-01-12T06:27:31.923Z,8
2017-01-12T06:28:40.599Z,8
2017-01-12T06:29:50.475Z,8
2017-01-12T06:30:59.163Z,4
2017-01-12T06:32:07.844Z,4
2017-01-12T06:33:17.696Z,4
2017-01-12T06:34:27.157Z,4
2017-01-12T06:35:36.231Z,4
2017-01-12T06:36:44.904Z,4
2017-01-12T06:37:54.370Z,4
2017-01-12T06:39:03.049Z,4
2017-01-12T06:40:12.122Z,4
2017-01-12T06:41:21.576Z,4
2017-01-12T06:42:30.649Z,8
2017-01-12T06:43:39.328Z,4
2017-01-12T06:44:49.175Z,4
2017-01-12T06:45:58.639Z,4
2017-01-12T06:47:07.330Z,4
2017-01-12T06:48:16.800Z,8
2017-01-12T06:49:25.484Z,8
2017-01-12T06:50:34.165Z,8
2017-01-12T06:51:44.016Z,8
2017-01-12T06:52:53.085Z,8
2017-01-12T06:54:02.540Z,8
2017-01-12T06:55:11.225Z,8
2017-01-12T06:56:20.676Z,4
2017-01-12T06:57:30.532Z,8
2017-01-12T06:58:39.600Z,8
2017-01-12T06:59:48.683Z,4
2017-01-12T07:00:57.756Z,4
2017-01-12T07:02:07.211Z,4
2017-01-12T07:03:16.662Z,4
2017-01-12T07:04:25.347Z,4
2017-01-12T07:05:34.423Z,8
2017-01-12T07:06:43.100Z,8
2017-01-12T07:07:51.785Z,8
2017-01-12T07:09:01.652Z,4
2017-01-12T07:10:10.725Z,4
2017-01-12T07:11:20.191Z,4
2017-01-12T07:12:30.040Z,8
2017-01-12T07:13:39.136Z,8
2017-01-12T07:14:48.222Z,8
2017-01-12T07:15:57.288Z,12
2017-01-12T07:17:07.162Z,12
2017-01-12T07:18:16.229Z,12
2017-01-12T07:19:25.301Z,16
2017-01-12T07:20:34.380Z,16
2017-01-12T07:21:43.440Z,16
2017-01-12T07:22:52.501Z,20
2017-01-12T07:24:01.973Z,20
2017-01-12T07:25:11.053Z,24
2017-01-12T07:26:20.133Z,28
2017-01-12T07:27:28.828Z,32
2017-01-12T07:28:37.651Z,32
2017-01-12T07:29:46.377Z,36
2017-01-12T07:30:55.860Z,40
2017-01-12T07:32:04.937Z,44
2017-01-12T07:33:14.406Z,48
2017-01-12T07:34:23.501Z,48
2017-01-12T07:35:33.056Z,52
2017-01-12T07:36:42.586Z,56
2017-01-12T07:37:51.676Z,60
2017-01-12T07:39:01.138Z,56
2017-01-12T07:40:09.825Z,60
2017-01-12T07:41:18.499Z,64
2017-01-12T07:42:28.342Z,68
2017-01-12T07:43:37.412Z,72
2017-01-12T07:44:46.502Z,80
2017-01-12T07:45:55.566Z,84
2017-01-12T07:47:05.346Z,84
2017-01-12T07:48:14.431Z,88
2017-01-12T07:49:23.114Z,92
2017-01-12T07:50:32.201Z,96
2017-01-12T07:51:41.288Z,96
2017-01-12T07:52:50.364Z,100
2017-01-12T07:53:59.441Z,104
2017-01-12T07:55:08.922Z,100
2017-01-12T07:56:18.799Z,104
2017-01-12T07:57:28.327Z,108
2017-01-12T07:58:37.417Z,108
2017-01-12T07:59:46.495Z,104
2017-01-12T08:00:56.345Z,104
2017-01-12T08:02:05.831Z,108
2017-01-12T08:03:14.934Z,112
2017-01-12T08:04:24.014Z,116
2017-01-12T08:05:33.520Z,112
2017-01-12T08:06:42.252Z,112
2017-01-12T08:07:51.760Z,116
2017-01-12T08:09:00.822Z,128
2017-01-12T08:10:10.290Z,132
2017-01-12T08:11:19.002Z,136
2017-01-12T08:12:28.123Z,136
2017-01-12T08:13:37.223Z,144
2017-01-12T08:14:46.320Z,148
2017-01-12T08:15:55.403Z,156
2017-01-12T08:17:04.479Z,164
2017-01-12T08:18:13.192Z,184
2017-01-12T08:19:22.272Z,188
2017-01-12T08:20:31.739Z,192
2017-01-12T08:21:40.429Z,196
2017-01-12T08:22:49.508Z,196
2017-01-12T08:23:58.609Z,204
2017-01-12T08:25:07.313Z,212
2017-01-12T08:26:16.766Z,224
2017-01-12T08:27:25.447Z,236
2017-01-12T08:28:34.125Z,256
2017-01-12T08:29:43.608Z,280
2017-01-12T08:30:52.685Z,304
2017-01-12T08:32:01.777Z,320
2017-01-12T08:33:11.253Z,336
2017-01-12T08:34:20.723Z,368
2017-01-12T08:35:29.801Z,388
2017-01-12T08:36:38.873Z,416
2017-01-12T08:37:47.956Z,424
2017-01-12T08:38:57.031Z,440
2017-01-12T08:40:06.116Z,460
2017-01-12T08:41:14.798Z,476
2017-01-12T08:42:23.889Z,464
2017-01-12T08:43:33.349Z,472
2017-01-12T08:44:42.805Z,520
2017-01-12T08:45:51.863Z,544
2017-01-12T08:47:01.319Z,580
2017-01-12T08:48:10.386Z,604
2017-01-12T08:49:19.457Z,616
2017-01-12T08:50:28.528Z,636
2017-01-12T08:51:37.221Z,668
2017-01-12T08:52:47.071Z,684
2017-01-12T08:53:56.162Z,692
2017-01-12T08:55:04.859Z,700
2017-01-12T08:56:13.940Z,688
2017-01-12T08:57:23.012Z,684
2017-01-12T08:58:31.700Z,700
2017-01-12T08:59:41.163Z,696
2017-01-12T09:00:50.645Z,696
2017-01-12T09:02:00.109Z,704
2017-01-12T09:03:09.582Z,696
2017-01-12T09:04:18.678Z,692
2017-01-12T09:05:27.369Z,704
2017-01-12T09:06:36.451Z,720
2017-01-12T09:07:45.923Z,728
2017-01-12T09:08:54.618Z,736
2017-01-12T09:10:03.691Z,740
2017-01-12T09:11:12.777Z,740
2017-01-12T09:12:21.850Z,752
2017-01-12T09:13:30.961Z,772
2017-01-12T09:14:40.461Z,784
2017-01-12T09:15:49.539Z,796
2017-01-12T09:16:58.232Z,800
2017-01-12T09:18:07.314Z,780
2017-01-12T09:19:16.401Z,760
2017-01-12T09:20:25.086Z,736
2017-01-12T09:21:34.570Z,716
2017-01-12T09:22:43.657Z,712
2017-01-12T09:23:52.352Z,696
2017-01-12T09:25:01.815Z,692
2017-01-12T09:26:11.282Z,700
2017-01-12T09:27:20.749Z,708
2017-01-12T09:28:29.435Z,704
2017-01-12T09:29:38.116Z,684
2017-01-12T09:30:47.198Z,672
2017-01-12T09:31:56.677Z,680
2017-01-12T09:33:06.143Z,692
2017-01-12T09:34:14.829Z,708
2017-01-12T09:35:23.908Z,740
2017-01-12T09:36:33.377Z,756
2017-01-12T09:37:42.448Z,756
2017-01-12T09:38:51.923Z,748
2017-01-12T09:40:00.605Z,736
2017-01-12T09:41:09.684Z,740
2017-01-12T09:42:19.143Z,748
2017-01-12T09:43:28.208Z,764
2017-01-12T09:44:36.905Z,772
2017-01-12T09:45:45.593Z,776
2017-01-12T09:46:55.073Z,780
2017-01-12T09:48:03.763Z,792
2017-01-12T09:49:12.439Z,820
2017-01-12T09:50:21.893Z,844
2017-01-12T09:51:31.371Z,880
2017-01-12T09:52:40.457Z,896
2017-01-12T09:53:49.953Z,880
2017-01-12T09:54:59.414Z,868
2017-01-12T09:56:08.109Z,852
2017-01-12T09:57:17.966Z,848
2017-01-12T09:58:27.077Z,856
2017-01-12T09:59:36.174Z,868
2017-01-12T10:00:44.902Z,876
2017-01-12T10:01:54.378Z,880
2017-01-12T10:03:03.849Z,884
2017-01-12T10:04:12.532Z,884
2017-01-12T10:05:21.613Z,876
2017-01-12T10:06:30.698Z,856
2017-01-12T10:07:40.154Z,836
2017-01-12T10:08:49.671Z,816
2017-01-12T10:09:59.127Z,804
2017-01-12T10:11:08.219Z,784
2017-01-12T10:12:17.296Z,772
2017-01-12T10:13:26.375Z,764
2017-01-12T10:14:35.831Z,768
2017-01-12T10:15:44.538Z,776
2017-01-12T10:16:54.405Z,792
2017-01-12T10:18:03.088Z,820
2017-01-12T10:19:12.577Z,864
2017-01-12T10:20:22.429Z,888
2017-01-12T10:21:31.885Z,904
2017-01-12T10:22:42.160Z,912
2017-01-12T10:23:50.828Z,904
2017-01-12T10:25:00.287Z,896
2017-01-12T10:26:09.001Z,872
2017-01-12T10:27:18.463Z,844
2017-01-12T10:28:27.548Z,820
2017-01-12T10:29:36.232Z,820
2017-01-12T10:30:44.920Z,816
2017-01-12T10:31:54.387Z,800
2017-01-12T10:33:03.459Z,796
2017-01-12T10:34:12.161Z,804
2017-01-12T10:35:21.246Z,816
2017-01-12T10:36:30.317Z,828
2017-01-12T10:37:39.393Z,848
2017-01-12T10:38:48.474Z,884
2017-01-12T10:39:57.168Z,924
2017-01-12T10:41:07.023Z,980
2017-01-12T10:42:16.099Z,1032
2017-01-12T10:43:25.206Z,1068
2017-01-12T10:44:34.282Z,1092
2017-01-12T10:45:43.365Z,1108
2017-01-12T10:46:52.851Z,1124
2017-01-12T10:48:02.330Z,1136
2017-01-12T10:49:11.021Z,1168
2017-01-12T10:50:20.448Z,1192
2017-01-12T10:51:29.527Z,1196
2017-01-12T10:52:38.294Z,1144
2017-01-12T10:53:46.985Z,1112
2017-01-12T10:54:56.848Z,1108
2017-01-12T10:56:06.864Z,1080
2017-01-12T10:57:15.957Z,1072
2017-01-12T10:58:25.435Z,1068
2017-01-12T10:59:34.125Z,1064
2017-01-12T11:00:42.814Z,1072
2017-01-12T11:01:52.233Z,1072
2017-01-12T11:03:00.921Z,1068
2017-01-12T11:04:10.397Z,1040
2017-01-12T11:05:19.494Z,1020
2017-01-12T11:06:28.594Z,984
2017-01-12T11:07:37.469Z,972
2017-01-12T11:08:46.934Z,972
2017-01-12T11:09:55.624Z,984
2017-01-12T11:11:04.714Z,996
2017-01-12T11:12:14.190Z,992
2017-01-12T11:13:24.224Z,992
2017-01-12T11:14:32.919Z,1000
2017-01-12T11:15:41.997Z,1012
2017-01-12T11:16:51.069Z,1008
2017-01-12T11:18:00.146Z,1008
2017-01-12T11:19:09.192Z,1004
2017-01-12T11:20:18.286Z,1004
2017-01-12T11:21:27.367Z,1016
2017-01-12T11:22:36.440Z,1036
2017-01-12T11:23:45.525Z,1076
2017-01-12T11:24:54.981Z,1100
2017-01-12T11:26:04.067Z,1132
2017-01-12T11:27:12.758Z,1160
2017-01-12T11:28:21.840Z,1192
2017-01-12T11:29:30.537Z,1228
2017-01-12T11:30:40.554Z,1240
2017-01-12T11:31:49.260Z,1232
2017-01-12T11:32:58.736Z,1216
2017-01-12T11:34:07.812Z,1204
2017-01-12T11:35:17.281Z,1176
2017-01-12T11:36:25.983Z,1056
2017-01-12T11:37:35.452Z,1140
2017-01-12T11:38:44.143Z,1144
2017-01-12T11:39:52.835Z,1156
2017-01-12T11:41:01.962Z,1156
2017-01-12T11:42:11.390Z,1136
2017-01-12T11:43:21.254Z,1108
2017-01-12T11:44:30.802Z,1080
2017-01-12T11:45:39.504Z,1068
2017-01-12T11:46:48.580Z,1040
2017-01-12T11:47:58.986Z,1012
2017-01-12T11:49:08.865Z,996
2017-01-12T11:50:17.566Z,992
2017-01-12T11:51:26.654Z,984
2017-01-12T11:52:36.130Z,984
2017-01-12T11:53:45.180Z,972
2017-01-12T11:54:53.877Z,940
2017-01-12T11:56:03.375Z,868
2017-01-12T11:57:12.862Z,820
2017-01-12T11:58:22.736Z,820
2017-01-12T11:59:31.853Z,852
2017-01-12T12:00:40.939Z,888
2017-01-12T12:01:49.639Z,928
2017-01-12T12:02:58.737Z,976
2017-01-12T12:04:07.817Z,1000
2017-01-12T12:05:17.077Z,1004
2017-01-12T12:06:25.769Z,992
2017-01-12T12:07:35.143Z,968
2017-01-12T12:08:45.035Z,944
2017-01-12T12:09:53.727Z,944
2017-01-12T12:11:03.497Z,956
2017-01-12T12:12:12.604Z,912
2017-01-12T12:13:22.465Z,944
2017-01-12T12:14:31.182Z,972
2017-01-12T12:15:40.653Z,952
2017-01-12T12:16:50.284Z,948
2017-01-12T12:17:59.376Z,964
2017-01-12T12:19:08.467Z,932
2017-01-12T12:20:17.959Z,908
2017-01-12T12:21:27.458Z,924
2017-01-12T12:22:36.560Z,936
2017-01-12T12:23:45.657Z,948
2017-01-12T12:24:54.734Z,956
2017-01-12T12:26:03.435Z,952
2017-01-12T12:27:12.528Z,928
2017-01-12T12:28:21.373Z,956
2017-01-12T12:29:30.081Z,964
2017-01-12T12:30:39.167Z,960
2017-01-12T12:31:48.247Z,916
2017-01-12T12:32:56.935Z,924
2017-01-12T12:34:05.635Z,924
2017-01-12T12:35:14.720Z,908
2017-01-12T12:36:23.807Z,892
2017-01-12T12:37:33.665Z,932
2017-01-12T12:38:43.564Z,908
2017-01-12T12:39:53.397Z,900
2017-01-12T12:41:02.532Z,868
2017-01-12T12:42:11.274Z,840
2017-01-12T12:43:19.977Z,836
2017-01-12T12:44:28.672Z,844
2017-01-12T12:45:38.554Z,840
2017-01-12T12:46:47.254Z,856
2017-01-12T12:47:56.346Z,828
2017-01-12T12:49:05.825Z,812
2017-01-12T12:50:15.690Z,824
2017-01-12T12:51:25.149Z,852
2017-01-12T12:52:34.242Z,868
2017-01-12T12:53:43.721Z,852
2017-01-12T12:54:52.810Z,832
2017-01-12T12:56:01.502Z,816
2017-01-12T12:57:10.605Z,788
2017-01-12T12:58:19.323Z,776
2017-01-12T12:59:28.028Z,816
2017-01-12T13:00:36.720Z,880
2017-01-12T13:01:45.830Z,928
2017-01-12T13:02:55.465Z,940
2017-01-12T13:04:05.328Z,920
2017-01-12T13:05:15.207Z,900
2017-01-12T13:06:24.675Z,904
2017-01-12T13:07:33.764Z,908
2017-01-12T13:08:43.004Z,872
2017-01-12T13:09:52.478Z,884
2017-01-12T13:11:01.177Z,892
2017-01-12T13:12:10.260Z,900
2017-01-12T13:13:19.349Z,904
2017-01-12T13:14:28.993Z,912
2017-01-12T13:15:37.688Z,908
2017-01-12T13:16:46.779Z,920
2017-01-12T13:17:55.868Z,872
2017-01-12T13:19:04.962Z,832
2017-01-12T13:20:15.004Z,788
2017-01-12T13:21:23.703Z,780
2017-01-12T13:22:33.184Z,796
2017-01-12T13:23:42.272Z,840
2017-01-12T13:24:52.523Z,856
2017-01-12T13:26:01.607Z,852
2017-01-12T13:27:11.087Z,844
2017-01-12T13:28:20.189Z,840
2017-01-12T13:29:29.304Z,820
2017-01-12T13:30:38.381Z,808
2017-01-12T13:31:47.233Z,800
2017-01-12T13:32:55.926Z,788
2017-01-12T13:34:05.397Z,772
2017-01-12T13:35:15.252Z,740
2017-01-12T13:36:24.328Z,696
2017-01-12T13:37:33.323Z,648
2017-01-12T13:38:42.412Z,612
2017-01-12T13:39:51.134Z,576
2017-01-12T13:41:00.217Z,560
2017-01-12T13:42:09.315Z,552
2017-01-12T13:43:19.437Z,544
2017-01-12T13:44:28.526Z,540
2017-01-12T13:45:37.237Z,548
2017-01-12T13:46:46.709Z,544
2017-01-12T13:47:55.391Z,540
2017-01-12T13:49:04.447Z,564
2017-01-12T13:50:14.306Z,588
2017-01-12T13:51:23.005Z,600
2017-01-12T13:52:32.862Z,600
2017-01-12T13:53:41.565Z,596
2017-01-12T13:54:50.399Z,588
2017-01-12T13:55:59.109Z,588
2017-01-12T13:57:08.608Z,560
2017-01-12T13:58:18.094Z,524
2017-01-12T13:59:27.572Z,500
2017-01-12T14:00:38.213Z,484
2017-01-12T14:01:47.682Z,476
2017-01-12T14:02:56.750Z,468
2017-01-12T14:04:06.232Z,472
2017-01-12T14:05:14.924Z,488
2017-01-12T14:06:24.356Z,508
2017-01-12T14:07:33.058Z,528
2017-01-12T14:08:42.542Z,536
2017-01-12T14:09:51.654Z,500
2017-01-12T14:11:00.377Z,460
2017-01-12T14:12:09.876Z,428
2017-01-12T14:13:18.568Z,412
2017-01-12T14:14:27.267Z,396
2017-01-12T14:15:35.981Z,416
2017-01-12T14:16:44.678Z,444
2017-01-12T14:17:53.516Z,440
2017-01-12T14:19:02.223Z,420
2017-01-12T14:20:10.924Z,404
2017-01-12T14:21:20.392Z,384
2017-01-12T14:22:29.075Z,368
2017-01-12T14:23:39.290Z,360
2017-01-12T14:24:48.775Z,364
2017-01-12T14:25:58.664Z,372
2017-01-12T14:27:07.951Z,368
2017-01-12T14:28:16.652Z,368
2017-01-12T14:29:26.092Z,352
2017-01-12T14:30:35.177Z,348
2017-01-12T14:31:44.268Z,360
2017-01-12T14:32:53.790Z,372
2017-01-12T14:34:02.890Z,384
2017-01-12T14:35:12.839Z,400
2017-01-12T14:36:21.931Z,408
2017-01-12T14:37:31.025Z,404
2017-01-12T14:38:40.121Z,384
2017-01-12T14:39:49.597Z,368
2017-01-12T14:40:58.848Z,352
2017-01-12T14:42:08.340Z,328
2017-01-12T14:43:17.417Z,316
2017-01-12T14:44:26.101Z,312
2017-01-12T14:45:35.574Z,308
2017-01-12T14:46:44.653Z,300
2017-01-12T14:47:53.743Z,288
2017-01-12T14:49:02.466Z,276
2017-01-12T14:50:11.550Z,268
2017-01-12T14:51:20.640Z,252
2017-01-12T14:52:29.699Z,240
2017-01-12T14:53:39.555Z,224
2017-01-12T14:54:48.644Z,208
2017-01-12T14:55:57.368Z,196
2017-01-12T14:57:06.450Z,184
2017-01-12T14:58:15.245Z,184
2017-01-12T14:59:24.331Z,176
2017-01-12T15:00:33.020Z,172
2017-01-12T15:01:42.122Z,164
2017-01-12T15:02:51.229Z,156
2017-01-12T15:04:00.047Z,160
2017-01-12T15:05:08.741Z,160
2017-01-12T15:06:17.856Z,160
2017-01-12T15:07:26.969Z,160
2017-01-12T15:08:36.439Z,156
2017-01-12T15:09:46.020Z,152
2017-01-12T15:10:55.138Z,152
2017-01-12T15:12:04.222Z,140
2017-01-12T15:13:13.698Z,128
2017-01-12T15:16:40.106Z,96
2017-01-12T15:17:48.795Z,96
2017-01-12T15:20:06.298Z,84
2017-01-12T15:21:15.954Z,76
2017-01-12T15:22:24.659Z,72
2017-01-12T15:23:33.718Z,64
2017-01-12T15:24:43.452Z,64
2017-01-12T15:25:52.538Z,64
2017-01-12T15:27:01.248Z,64
2017-01-12T15:28:09.966Z,68
2017-01-12T15:29:19.447Z,68
2017-01-12T15:30:28.136Z,64
2017-01-12T15:31:37.620Z,64
2017-01-12T15:32:47.278Z,64
2017-01-12T15:33:55.985Z,60
2017-01-12T15:35:05.118Z,52
2017-01-12T15:36:14.208Z,44
2017-01-12T15:37:23.309Z,40
2017-01-12T15:38:32.512Z,36
2017-01-12T15:39:41.608Z,36
2017-01-12T15:40:51.089Z,28
2017-01-12T15:42:00.164Z,28
2017-01-12T15:43:09.247Z,28
2017-01-12T15:44:18.328Z,24
2017-01-12T15:45:27.406Z,24
2017-01-12T15:46:36.099Z,20
2017-01-12T15:47:45.193Z,16
2017-01-12T15:48:54.680Z,12
2017-01-12T15:50:03.927Z,12
2017-01-12T15:51:13.398Z,8
2017-01-12T15:52:22.088Z,8
2017-01-12T15:53:31.179Z,8
2017-01-12T15:54:39.864Z,8
2017-01-12T15:55:50.076Z,8
2017-01-12T15:56:58.766Z,4
2017-01-12T15:58:08.248Z,4
2017-01-12T15:59:17.753Z,4
2017-01-12T16:00:27.255Z,4
2017-01-12T16:01:36.334Z,4
2017-01-12T16:02:45.035Z,4
2017-01-12T16:03:54.900Z,4
2017-01-12T16:05:03.588Z,4
2017-01-12T16:06:12.270Z,0
2017-01-12T16:07:21.682Z,0
2017-01-12T16:08:31.152Z,0
2017-01-12T16:09:39.859Z,0
2017-01-12T16:10:49.343Z,0
2017-01-12T16:11:59.226Z,0
2017-01-12T16:13:09.053Z,0
2017-01-12T16:14:17.742Z,0
2017-01-12T16:15:26.461Z,0
2017-01-12T16:16:35.550Z,0
2017-01-12T16:17:45.011Z,0
2017-01-12T16:18:54.446Z,0
2017-01-12T16:20:03.550Z,0
2017-01-12T16:21:12.654Z,0
2017-01-12T16:22:21.749Z,0
2017-01-12T16:23:31.617Z,0
2017-01-12T16:24:41.445Z,0
2017-01-12T16:25:50.924Z,0
2017-01-12T16:27:00.017Z,0
2017-01-12T16:28:09.097Z,0